sensor_id;sensor_type;location;lat;lon;timestamp;P1;durP1;ratioP1;P2;durP2;ratioP2
10872;SDS011;34586;53.616;10.032;2024-01-30T00:01:13;11.57;;;8.27;;
10872;SDS011;34586;53.616;10.032;2024-01-30T00:03:39;10.40;;;8.67;;
10872;SDS011;34586;53.616;10.032;2024-01-30T00:06:04;9.97;;;8.30;;
10872;SDS011;34586;53.616;10.032;2024-01-30T00:08:30;11.43;;;8.23;;
10872;SDS011;34586;53.616;10.032;2024-01-30T00:10:56;10.50;;;8.63;;
10872;SDS011;34586;53.616;10.032;2024-01-30T00:13:21;9.97;;;7.87;;
10872;SDS011;34586;53.616;10.032;2024-01-30T00:15:47;11.07;;;8.40;;
10872;SDS011;34586;53.616;10.032;2024-01-30T00:18:13;9.20;;;7.63;;
10872;SDS011;34586;53.616;10.032;2024-01-30T00:20:39;9.83;;;7.60;;
10872;SDS011;34586;53.616;10.032;2024-01-30T00:23:05;9.87;;;7.70;;
10872;SDS011;34586;53.616;10.032;2024-01-30T00:25:30;9.27;;;7.60;;
10872;SDS011;34586;53.616;10.032;2024-01-30T00:27:56;10.67;;;7.67;;
10872;SDS011;34586;53.616;10.032;2024-01-30T00:30:21;8.10;;;7.17;;
10872;SDS011;34586;53.616;10.032;2024-01-30T00:32:47;9.53;;;7.40;;
10872;SDS011;34586;53.616;10.032;2024-01-30T00:35:13;9.70;;;7.63;;
10872;SDS011;34586;53.616;10.032;2024-01-30T00:37:38;8.63;;;7.30;;
10872;SDS011;34586;53.616;10.032;2024-01-30T00:40:04;9.87;;;7.13;;
10872;SDS011;34586;53.616;10.032;2024-01-30T00:42:31;8.63;;;7.30;;
10872;SDS011;34586;53.616;10.032;2024-01-30T00:44:57;9.80;;;7.67;;
10872;SDS011;34586;53.616;10.032;2024-01-30T00:47:23;9.17;;;7.40;;
10872;SDS011;34586;53.616;10.032;2024-01-30T00:49:48;9.43;;;7.10;;
10872;SDS011;34586;53.616;10.032;2024-01-30T00:52:14;9.23;;;6.80;;
10872;SDS011;34586;53.616;10.032;2024-01-30T00:54:40;10.50;;;7.30;;
10872;SDS011;34586;53.616;10.032;2024-01-30T00:57:06;9.03;;;6.30;;
10872;SDS011;34586;53.616;10.032;2024-01-30T00:59:32;11.07;;;7.03;;
10872;SDS011;34586;53.616;10.032;2024-01-30T01:01:58;11.30;;;7.17;;
10872;SDS011;34586;53.616;10.032;2024-01-30T01:04:24;7.80;;;6.77;;
10872;SDS011;34586;53.616;10.032;2024-01-30T01:06:51;8.93;;;6.60;;
10872;SDS011;34586;53.616;10.032;2024-01-30T01:09:17;9.43;;;7.37;;
10872;SDS011;34586;53.616;10.032;2024-01-30T01:11:43;10.50;;;7.63;;
10872;SDS011;34586;53.616;10.032;2024-01-30T01:14:08;9.30;;;6.90;;
10872;SDS011;34586;53.616;10.032;2024-01-30T01:16:34;10.57;;;6.73;;
10872;SDS011;34586;53.616;10.032;2024-01-30T01:19:00;7.63;;;6.83;;
10872;SDS011;34586;53.616;10.032;2024-01-30T01:21:25;9.27;;;7.53;;
10872;SDS011;34586;53.616;10.032;2024-01-30T01:23:51;10.83;;;6.77;;
10872;SDS011;34586;53.616;10.032;2024-01-30T01:26:17;7.17;;;6.47;;
10872;SDS011;34586;53.616;10.032;2024-01-30T01:28:42;12.23;;;7.30;;
10872;SDS011;34586;53.616;10.032;2024-01-30T01:31:08;8.07;;;6.37;;
10872;SDS011;34586;53.616;10.032;2024-01-30T01:33:34;9.00;;;7.43;;
10872;SDS011;34586;53.616;10.032;2024-01-30T01:36:00;9.17;;;7.13;;
10872;SDS011;34586;53.616;10.032;2024-01-30T01:38:29;8.27;;;6.63;;
10872;SDS011;34586;53.616;10.032;2024-01-30T01:40:54;7.70;;;6.87;;
10872;SDS011;34586;53.616;10.032;2024-01-30T01:43:20;8.50;;;6.87;;
10872;SDS011;34586;53.616;10.032;2024-01-30T01:45:46;7.90;;;6.67;;
10872;SDS011;34586;53.616;10.032;2024-01-30T01:48:12;8.20;;;6.23;;
10872;SDS011;34586;53.616;10.032;2024-01-30T01:50:38;8.67;;;7.03;;
10872;SDS011;34586;53.616;10.032;2024-01-30T01:53:05;10.13;;;7.10;;
10872;SDS011;34586;53.616;10.032;2024-01-30T01:55:32;8.17;;;6.07;;
10872;SDS011;34586;53.616;10.032;2024-01-30T01:57:59;8.47;;;6.70;;
10872;SDS011;34586;53.616;10.032;2024-01-30T02:00:25;6.90;;;6.20;;
10872;SDS011;34586;53.616;10.032;2024-01-30T02:02:50;7.17;;;6.03;;
10872;SDS011;34586;53.616;10.032;2024-01-30T02:05:19;7.57;;;6.50;;
10872;SDS011;34586;53.616;10.032;2024-01-30T02:07:45;7.27;;;6.47;;
10872;SDS011;34586;53.616;10.032;2024-01-30T02:10:10;10.47;;;6.70;;
10872;SDS011;34586;53.616;10.032;2024-01-30T02:12:36;9.50;;;6.57;;
10872;SDS011;34586;53.616;10.032;2024-01-30T02:15:02;9.50;;;6.50;;
10872;SDS011;34586;53.616;10.032;2024-01-30T02:17:29;7.13;;;6.40;;
10872;SDS011;34586;53.616;10.032;2024-01-30T02:19:55;10.27;;;6.33;;
10872;SDS011;34586;53.616;10.032;2024-01-30T02:22:21;9.07;;;6.07;;
10872;SDS011;34586;53.616;10.032;2024-01-30T02:24:48;8.13;;;6.40;;
10872;SDS011;34586;53.616;10.032;2024-01-30T02:27:14;7.27;;;6.07;;
10872;SDS011;34586;53.616;10.032;2024-01-30T02:29:40;6.77;;;5.83;;
10872;SDS011;34586;53.616;10.032;2024-01-30T02:32:06;9.00;;;6.40;;
10872;SDS011;34586;53.616;10.032;2024-01-30T02:34:32;9.70;;;6.13;;
10872;SDS011;34586;53.616;10.032;2024-01-30T02:36:58;7.97;;;6.33;;
10872;SDS011;34586;53.616;10.032;2024-01-30T02:39:24;9.93;;;6.83;;
10872;SDS011;34586;53.616;10.032;2024-01-30T02:41:49;7.70;;;6.20;;
10872;SDS011;34586;53.616;10.032;2024-01-30T02:44:15;7.10;;;6.17;;
10872;SDS011;34586;53.616;10.032;2024-01-30T02:46:41;7.50;;;6.23;;
10872;SDS011;34586;53.616;10.032;2024-01-30T02:49:06;6.47;;;5.87;;
10872;SDS011;34586;53.616;10.032;2024-01-30T02:51:32;8.93;;;6.47;;
10872;SDS011;34586;53.616;10.032;2024-01-30T02:53:58;8.90;;;6.30;;
10872;SDS011;34586;53.616;10.032;2024-01-30T02:56:23;8.20;;;6.20;;
10872;SDS011;34586;53.616;10.032;2024-01-30T02:58:49;7.17;;;6.47;;
10872;SDS011;34586;53.616;10.032;2024-01-30T03:01:14;8.07;;;6.73;;
10872;SDS011;34586;53.616;10.032;2024-01-30T03:03:40;8.67;;;6.90;;
10872;SDS011;34586;53.616;10.032;2024-01-30T03:06:06;9.23;;;5.97;;
10872;SDS011;34586;53.616;10.032;2024-01-30T03:08:32;7.87;;;6.80;;
10872;SDS011;34586;53.616;10.032;2024-01-30T03:10:59;7.43;;;6.00;;
10872;SDS011;34586;53.616;10.032;2024-01-30T03:13:25;8.47;;;6.13;;
10872;SDS011;34586;53.616;10.032;2024-01-30T03:15:51;9.07;;;7.07;;
10872;SDS011;34586;53.616;10.032;2024-01-30T03:18:17;9.90;;;7.27;;
10872;SDS011;34586;53.616;10.032;2024-01-30T03:20:42;11.97;;;7.33;;
10872;SDS011;34586;53.616;10.032;2024-01-30T03:23:08;8.60;;;6.87;;
10872;SDS011;34586;53.616;10.032;2024-01-30T03:25:34;10.93;;;7.23;;
10872;SDS011;34586;53.616;10.032;2024-01-30T03:27:59;9.30;;;7.00;;
10872;SDS011;34586;53.616;10.032;2024-01-30T03:30:25;10.87;;;7.07;;
10872;SDS011;34586;53.616;10.032;2024-01-30T03:32:50;8.73;;;7.17;;
10872;SDS011;34586;53.616;10.032;2024-01-30T03:35:16;10.13;;;7.87;;
10872;SDS011;34586;53.616;10.032;2024-01-30T03:37:41;8.30;;;7.00;;
10872;SDS011;34586;53.616;10.032;2024-01-30T03:40:07;9.10;;;7.27;;
10872;SDS011;34586;53.616;10.032;2024-01-30T03:42:33;11.23;;;6.80;;
10872;SDS011;34586;53.616;10.032;2024-01-30T03:44:59;9.63;;;6.80;;
10872;SDS011;34586;53.616;10.032;2024-01-30T03:47:24;10.27;;;7.23;;
10872;SDS011;34586;53.616;10.032;2024-01-30T03:49:50;9.87;;;7.47;;
10872;SDS011;34586;53.616;10.032;2024-01-30T03:52:16;11.07;;;7.97;;
10872;SDS011;34586;53.616;10.032;2024-01-30T03:54:42;7.40;;;6.53;;
10872;SDS011;34586;53.616;10.032;2024-01-30T03:57:08;8.73;;;7.47;;
10872;SDS011;34586;53.616;10.032;2024-01-30T03:59:33;11.57;;;8.03;;
10872;SDS011;34586;53.616;10.032;2024-01-30T04:01:59;8.60;;;7.70;;
10872;SDS011;34586;53.616;10.032;2024-01-30T04:04:25;10.00;;;7.80;;
10872;SDS011;34586;53.616;10.032;2024-01-30T04:06:51;12.63;;;8.07;;
10872;SDS011;34586;53.616;10.032;2024-01-30T04:09:16;10.87;;;8.50;;
10872;SDS011;34586;53.616;10.032;2024-01-30T04:11:42;8.13;;;7.27;;
10872;SDS011;34586;53.616;10.032;2024-01-30T04:14:08;13.60;;;8.30;;
10872;SDS011;34586;53.616;10.032;2024-01-30T04:16:34;11.53;;;8.27;;
10872;SDS011;34586;53.616;10.032;2024-01-30T04:18:59;9.43;;;7.50;;
10872;SDS011;34586;53.616;10.032;2024-01-30T04:21:25;9.70;;;8.23;;
10872;SDS011;34586;53.616;10.032;2024-01-30T04:23:51;8.50;;;7.70;;
10872;SDS011;34586;53.616;10.032;2024-01-30T04:26:17;11.27;;;9.20;;
10872;SDS011;34586;53.616;10.032;2024-01-30T04:28:45;10.73;;;8.60;;
10872;SDS011;34586;53.616;10.032;2024-01-30T04:31:11;10.60;;;8.80;;
10872;SDS011;34586;53.616;10.032;2024-01-30T04:33:37;10.97;;;7.87;;
10872;SDS011;34586;53.616;10.032;2024-01-30T04:36:03;10.80;;;7.93;;
10872;SDS011;34586;53.616;10.032;2024-01-30T04:38:29;8.57;;;7.50;;
10872;SDS011;34586;53.616;10.032;2024-01-30T04:40:55;9.47;;;8.40;;
10872;SDS011;34586;53.616;10.032;2024-01-30T04:43:21;10.90;;;8.53;;
10872;SDS011;34586;53.616;10.032;2024-01-30T04:45:46;11.70;;;8.87;;
10872;SDS011;34586;53.616;10.032;2024-01-30T04:48:12;10.13;;;8.73;;
10872;SDS011;34586;53.616;10.032;2024-01-30T04:50:38;9.67;;;8.57;;
10872;SDS011;34586;53.616;10.032;2024-01-30T04:53:04;12.77;;;9.43;;
10872;SDS011;34586;53.616;10.032;2024-01-30T04:55:29;10.50;;;8.60;;
10872;SDS011;34586;53.616;10.032;2024-01-30T04:57:55;10.30;;;8.43;;
10872;SDS011;34586;53.616;10.032;2024-01-30T05:00:20;10.90;;;8.90;;
10872;SDS011;34586;53.616;10.032;2024-01-30T05:02:46;14.90;;;9.30;;
10872;SDS011;34586;53.616;10.032;2024-01-30T05:05:13;9.40;;;8.40;;
10872;SDS011;34586;53.616;10.032;2024-01-30T05:07:41;11.37;;;9.20;;
10872;SDS011;34586;53.616;10.032;2024-01-30T05:10:06;14.07;;;9.47;;
10872;SDS011;34586;53.616;10.032;2024-01-30T05:12:33;13.83;;;9.40;;
10872;SDS011;34586;53.616;10.032;2024-01-30T05:14:59;12.30;;;9.60;;
10872;SDS011;34586;53.616;10.032;2024-01-30T05:17:24;12.80;;;10.20;;
10872;SDS011;34586;53.616;10.032;2024-01-30T05:19:50;10.73;;;8.70;;
10872;SDS011;34586;53.616;10.032;2024-01-30T05:22:15;13.53;;;9.00;;
10872;SDS011;34586;53.616;10.032;2024-01-30T05:24:43;10.80;;;9.13;;
10872;SDS011;34586;53.616;10.032;2024-01-30T05:27:09;13.20;;;9.50;;
10872;SDS011;34586;53.616;10.032;2024-01-30T05:29:35;11.83;;;9.87;;
10872;SDS011;34586;53.616;10.032;2024-01-30T05:32:01;12.47;;;8.80;;
10872;SDS011;34586;53.616;10.032;2024-01-30T05:34:27;13.37;;;10.43;;
10872;SDS011;34586;53.616;10.032;2024-01-30T05:36:53;11.97;;;9.53;;
10872;SDS011;34586;53.616;10.032;2024-01-30T05:39:18;10.60;;;9.53;;
10872;SDS011;34586;53.616;10.032;2024-01-30T05:41:44;11.83;;;9.97;;
10872;SDS011;34586;53.616;10.032;2024-01-30T05:44:09;13.10;;;10.80;;
10872;SDS011;34586;53.616;10.032;2024-01-30T05:46:35;11.70;;;9.87;;
10872;SDS011;34586;53.616;10.032;2024-01-30T05:49:01;12.70;;;10.63;;
10872;SDS011;34586;53.616;10.032;2024-01-30T05:51:26;12.27;;;9.40;;
10872;SDS011;34586;53.616;10.032;2024-01-30T05:53:53;11.00;;;9.63;;
10872;SDS011;34586;53.616;10.032;2024-01-30T05:56:19;13.17;;;9.90;;
10872;SDS011;34586;53.616;10.032;2024-01-30T05:58:44;11.43;;;10.23;;
10872;SDS011;34586;53.616;10.032;2024-01-30T06:01:10;12.00;;;9.33;;
10872;SDS011;34586;53.616;10.032;2024-01-30T06:03:35;11.33;;;10.00;;
10872;SDS011;34586;53.616;10.032;2024-01-30T06:06:01;10.97;;;9.77;;
10872;SDS011;34586;53.616;10.032;2024-01-30T06:08:27;13.13;;;10.63;;
10872;SDS011;34586;53.616;10.032;2024-01-30T06:10:52;13.30;;;9.10;;
10872;SDS011;34586;53.616;10.032;2024-01-30T06:13:18;13.27;;;9.57;;
10872;SDS011;34586;53.616;10.032;2024-01-30T06:15:43;14.50;;;9.43;;
10872;SDS011;34586;53.616;10.032;2024-01-30T06:18:09;15.30;;;10.50;;
10872;SDS011;34586;53.616;10.032;2024-01-30T06:20:35;12.07;;;9.77;;
10872;SDS011;34586;53.616;10.032;2024-01-30T06:23:01;12.33;;;9.97;;
10872;SDS011;34586;53.616;10.032;2024-01-30T06:25:26;17.97;;;10.07;;
10872;SDS011;34586;53.616;10.032;2024-01-30T06:27:52;12.87;;;9.97;;
10872;SDS011;34586;53.616;10.032;2024-01-30T06:30:18;15.47;;;10.50;;
10872;SDS011;34586;53.616;10.032;2024-01-30T06:32:43;12.67;;;10.37;;
10872;SDS011;34586;53.616;10.032;2024-01-30T06:35:09;15.30;;;10.83;;
10872;SDS011;34586;53.616;10.032;2024-01-30T06:37:35;13.30;;;10.13;;
10872;SDS011;34586;53.616;10.032;2024-01-30T06:40:01;13.80;;;10.10;;
10872;SDS011;34586;53.616;10.032;2024-01-30T06:42:27;15.10;;;10.57;;
10872;SDS011;34586;53.616;10.032;2024-01-30T06:44:53;15.80;;;9.93;;
10872;SDS011;34586;53.616;10.032;2024-01-30T06:47:18;15.03;;;10.57;;
10872;SDS011;34586;53.616;10.032;2024-01-30T06:49:44;10.77;;;9.67;;
10872;SDS011;34586;53.616;10.032;2024-01-30T06:52:10;14.17;;;10.20;;
10872;SDS011;34586;53.616;10.032;2024-01-30T06:54:36;12.80;;;10.00;;
10872;SDS011;34586;53.616;10.032;2024-01-30T06:57:01;12.67;;;10.10;;
10872;SDS011;34586;53.616;10.032;2024-01-30T06:59:27;11.23;;;9.63;;
10872;SDS011;34586;53.616;10.032;2024-01-30T07:01:53;12.90;;;10.03;;
10872;SDS011;34586;53.616;10.032;2024-01-30T07:04:19;12.20;;;10.10;;
10872;SDS011;34586;53.616;10.032;2024-01-30T07:06:44;12.93;;;9.63;;
10872;SDS011;34586;53.616;10.032;2024-01-30T07:09:10;13.50;;;9.80;;
10872;SDS011;34586;53.616;10.032;2024-01-30T07:11:35;15.53;;;10.60;;
10872;SDS011;34586;53.616;10.032;2024-01-30T07:14:01;12.40;;;10.93;;
10872;SDS011;34586;53.616;10.032;2024-01-30T07:16:29;11.63;;;9.93;;
10872;SDS011;34586;53.616;10.032;2024-01-30T07:18:55;13.93;;;10.40;;
10872;SDS011;34586;53.616;10.032;2024-01-30T07:21:21;11.03;;;9.80;;
10872;SDS011;34586;53.616;10.032;2024-01-30T07:23:55;11.93;;;10.33;;
10872;SDS011;34586;53.616;10.032;2024-01-30T07:26:21;12.60;;;10.67;;
10872;SDS011;34586;53.616;10.032;2024-01-30T07:28:47;12.93;;;10.67;;
10872;SDS011;34586;53.616;10.032;2024-01-30T07:31:13;15.63;;;11.23;;
10872;SDS011;34586;53.616;10.032;2024-01-30T07:33:39;12.13;;;10.70;;
10872;SDS011;34586;53.616;10.032;2024-01-30T07:36:04;12.37;;;11.03;;
10872;SDS011;34586;53.616;10.032;2024-01-30T07:38:33;17.13;;;11.80;;
10872;SDS011;34586;53.616;10.032;2024-01-30T07:40:59;13.90;;;10.40;;
10872;SDS011;34586;53.616;10.032;2024-01-30T07:43:25;14.03;;;10.90;;
10872;SDS011;34586;53.616;10.032;2024-01-30T07:45:50;14.90;;;10.97;;
10872;SDS011;34586;53.616;10.032;2024-01-30T07:48:16;15.87;;;11.73;;
10872;SDS011;34586;53.616;10.032;2024-01-30T07:50:42;15.20;;;11.93;;
10872;SDS011;34586;53.616;10.032;2024-01-30T07:53:07;14.70;;;10.47;;
10872;SDS011;34586;53.616;10.032;2024-01-30T07:55:33;15.90;;;10.50;;
10872;SDS011;34586;53.616;10.032;2024-01-30T08:01:26;15.37;;;11.13;;
10872;SDS011;34586;53.616;10.032;2024-01-30T08:03:52;15.07;;;11.83;;
10872;SDS011;34586;53.616;10.032;2024-01-30T08:06:18;15.73;;;11.67;;
10872;SDS011;34586;53.616;10.032;2024-01-30T08:08:44;14.87;;;10.97;;
10872;SDS011;34586;53.616;10.032;2024-01-30T08:11:10;17.57;;;11.33;;
10872;SDS011;34586;53.616;10.032;2024-01-30T08:13:35;15.00;;;11.57;;
10872;SDS011;34586;53.616;10.032;2024-01-30T08:16:01;15.20;;;11.37;;
10872;SDS011;34586;53.616;10.032;2024-01-30T08:18:27;16.17;;;11.57;;
10872;SDS011;34586;53.616;10.032;2024-01-30T08:20:52;13.97;;;11.37;;
10872;SDS011;34586;53.616;10.032;2024-01-30T08:23:18;13.77;;;11.27;;
10872;SDS011;34586;53.616;10.032;2024-01-30T08:25:43;16.20;;;11.37;;
10872;SDS011;34586;53.616;10.032;2024-01-30T08:28:09;13.70;;;10.87;;
10872;SDS011;34586;53.616;10.032;2024-01-30T08:30:34;14.20;;;11.03;;
10872;SDS011;34586;53.616;10.032;2024-01-30T08:33:00;15.60;;;11.37;;
10872;SDS011;34586;53.616;10.032;2024-01-30T08:35:26;11.83;;;10.63;;
10872;SDS011;34586;53.616;10.032;2024-01-30T08:37:51;14.13;;;11.47;;
10872;SDS011;34586;53.616;10.032;2024-01-30T08:40:17;13.17;;;11.50;;
10872;SDS011;34586;53.616;10.032;2024-01-30T08:42:42;15.83;;;12.07;;
10872;SDS011;34586;53.616;10.032;2024-01-30T08:45:08;15.70;;;11.77;;
10872;SDS011;34586;53.616;10.032;2024-01-30T08:47:34;13.20;;;11.23;;
10872;SDS011;34586;53.616;10.032;2024-01-30T08:50:00;12.83;;;11.50;;
10872;SDS011;34586;53.616;10.032;2024-01-30T08:52:26;13.60;;;11.10;;
10872;SDS011;34586;53.616;10.032;2024-01-30T08:54:51;15.10;;;12.47;;
10872;SDS011;34586;53.616;10.032;2024-01-30T08:57:17;13.47;;;11.60;;
10872;SDS011;34586;53.616;10.032;2024-01-30T08:59:42;14.60;;;11.87;;
10872;SDS011;34586;53.616;10.032;2024-01-30T09:02:10;15.37;;;11.33;;
10872;SDS011;34586;53.616;10.032;2024-01-30T09:04:39;13.97;;;10.87;;
10872;SDS011;34586;53.616;10.032;2024-01-30T09:07:05;12.17;;;10.87;;
10872;SDS011;34586;53.616;10.032;2024-01-30T09:09:33;11.53;;;10.30;;
10872;SDS011;34586;53.616;10.032;2024-01-30T09:11:59;14.17;;;11.50;;
10872;SDS011;34586;53.616;10.032;2024-01-30T09:14:29;14.30;;;11.77;;
10872;SDS011;34586;53.616;10.032;2024-01-30T09:16:55;15.93;;;10.63;;
10872;SDS011;34586;53.616;10.032;2024-01-30T09:19:21;12.97;;;11.60;;
10872;SDS011;34586;53.616;10.032;2024-01-30T09:21:47;12.73;;;11.00;;
10872;SDS011;34586;53.616;10.032;2024-01-30T09:24:12;13.37;;;11.37;;
10872;SDS011;34586;53.616;10.032;2024-01-30T09:26:38;13.43;;;11.63;;
10872;SDS011;34586;53.616;10.032;2024-01-30T09:29:03;16.43;;;11.90;;
10872;SDS011;34586;53.616;10.032;2024-01-30T09:31:29;13.23;;;11.27;;
10872;SDS011;34586;53.616;10.032;2024-01-30T09:33:55;14.10;;;10.93;;
10872;SDS011;34586;53.616;10.032;2024-01-30T09:36:20;13.40;;;11.47;;
10872;SDS011;34586;53.616;10.032;2024-01-30T09:38:47;12.93;;;10.63;;
10872;SDS011;34586;53.616;10.032;2024-01-30T09:41:12;16.10;;;11.57;;
10872;SDS011;34586;53.616;10.032;2024-01-30T09:43:38;13.00;;;11.57;;
10872;SDS011;34586;53.616;10.032;2024-01-30T09:46:05;11.90;;;10.67;;
10872;SDS011;34586;53.616;10.032;2024-01-30T09:48:32;14.87;;;11.70;;
10872;SDS011;34586;53.616;10.032;2024-01-30T09:50:59;14.50;;;11.43;;
10872;SDS011;34586;53.616;10.032;2024-01-30T09:53:25;15.53;;;11.83;;
10872;SDS011;34586;53.616;10.032;2024-01-30T09:55:51;13.60;;;11.33;;
10872;SDS011;34586;53.616;10.032;2024-01-30T09:58:17;14.80;;;10.70;;
10872;SDS011;34586;53.616;10.032;2024-01-30T10:00:42;11.97;;;10.07;;
10872;SDS011;34586;53.616;10.032;2024-01-30T10:03:08;12.03;;;10.60;;
10872;SDS011;34586;53.616;10.032;2024-01-30T10:05:35;12.47;;;10.57;;
10872;SDS011;34586;53.616;10.032;2024-01-30T10:08:05;14.43;;;11.17;;
10872;SDS011;34586;53.616;10.032;2024-01-30T10:10:31;15.77;;;10.60;;
10872;SDS011;34586;53.616;10.032;2024-01-30T10:12:57;13.93;;;11.43;;
10872;SDS011;34586;53.616;10.032;2024-01-30T10:15:23;16.97;;;11.07;;
10872;SDS011;34586;53.616;10.032;2024-01-30T10:17:50;12.33;;;10.87;;
10872;SDS011;34586;53.616;10.032;2024-01-30T10:20:16;12.57;;;10.37;;
10872;SDS011;34586;53.616;10.032;2024-01-30T10:22:42;14.57;;;10.83;;
10872;SDS011;34586;53.616;10.032;2024-01-30T10:25:10;12.03;;;10.37;;
10872;SDS011;34586;53.616;10.032;2024-01-30T10:27:36;14.03;;;10.73;;
10872;SDS011;34586;53.616;10.032;2024-01-30T10:30:04;13.57;;;10.77;;
10872;SDS011;34586;53.616;10.032;2024-01-30T10:32:30;12.20;;;10.27;;
10872;SDS011;34586;53.616;10.032;2024-01-30T10:34:56;12.77;;;10.50;;
10872;SDS011;34586;53.616;10.032;2024-01-30T10:37:21;15.47;;;11.30;;
10872;SDS011;34586;53.616;10.032;2024-01-30T10:39:51;11.43;;;9.00;;
10872;SDS011;34586;53.616;10.032;2024-01-30T10:42:20;12.57;;;9.60;;
10872;SDS011;34586;53.616;10.032;2024-01-30T10:45:07;17.73;;;11.43;;
10872;SDS011;34586;53.616;10.032;2024-01-30T10:47:54;14.67;;;10.43;;
10872;SDS011;34586;53.616;10.032;2024-01-30T10:50:24;16.20;;;10.73;;
10872;SDS011;34586;53.616;10.032;2024-01-30T10:52:50;13.77;;;10.20;;
10872;SDS011;34586;53.616;10.032;2024-01-30T10:55:17;10.40;;;9.33;;
10872;SDS011;34586;53.616;10.032;2024-01-30T10:57:43;12.47;;;9.90;;
10872;SDS011;34586;53.616;10.032;2024-01-30T11:00:13;12.17;;;9.93;;
10872;SDS011;34586;53.616;10.032;2024-01-30T11:02:43;14.23;;;9.70;;
10872;SDS011;34586;53.616;10.032;2024-01-30T11:05:11;13.33;;;10.17;;
10872;SDS011;34586;53.616;10.032;2024-01-30T11:07:38;11.67;;;10.10;;
10872;SDS011;34586;53.616;10.032;2024-01-30T11:10:04;13.00;;;9.93;;
10872;SDS011;34586;53.616;10.032;2024-01-30T11:12:37;14.87;;;10.73;;
10872;SDS011;34586;53.616;10.032;2024-01-30T11:15:06;12.57;;;10.07;;
10872;SDS011;34586;53.616;10.032;2024-01-30T11:22:44;11.77;;;9.10;;
10872;SDS011;34586;53.616;10.032;2024-01-30T11:25:15;12.77;;;9.97;;
10872;SDS011;34586;53.616;10.032;2024-01-30T11:27:42;10.67;;;9.50;;
10872;SDS011;34586;53.616;10.032;2024-01-30T11:30:08;10.63;;;9.40;;
10872;SDS011;34586;53.616;10.032;2024-01-30T11:32:34;13.00;;;10.60;;
10872;SDS011;34586;53.616;10.032;2024-01-30T11:35:00;12.83;;;9.63;;
10872;SDS011;34586;53.616;10.032;2024-01-30T11:37:28;12.73;;;10.00;;
10872;SDS011;34586;53.616;10.032;2024-01-30T11:39:56;11.33;;;9.17;;
10872;SDS011;34586;53.616;10.032;2024-01-30T11:42:22;12.73;;;9.57;;
10872;SDS011;34586;53.616;10.032;2024-01-30T11:44:52;13.47;;;9.53;;
10872;SDS011;34586;53.616;10.032;2024-01-30T11:47:17;12.50;;;8.90;;
10872;SDS011;34586;53.616;10.032;2024-01-30T11:49:43;11.73;;;9.40;;
10872;SDS011;34586;53.616;10.032;2024-01-30T11:52:09;12.73;;;9.83;;
10872;SDS011;34586;53.616;10.032;2024-01-30T11:54:35;12.27;;;10.00;;
10872;SDS011;34586;53.616;10.032;2024-01-30T11:57:01;12.30;;;9.30;;
10872;SDS011;34586;53.616;10.032;2024-01-30T11:59:26;11.27;;;9.37;;
10872;SDS011;34586;53.616;10.032;2024-01-30T12:01:52;12.00;;;9.00;;
10872;SDS011;34586;53.616;10.032;2024-01-30T12:04:17;11.47;;;9.30;;
10872;SDS011;34586;53.616;10.032;2024-01-30T12:06:43;11.33;;;8.93;;
10872;SDS011;34586;53.616;10.032;2024-01-30T12:09:09;10.47;;;9.00;;
10872;SDS011;34586;53.616;10.032;2024-01-30T12:11:46;13.40;;;8.90;;
10872;SDS011;34586;53.616;10.032;2024-01-30T12:14:12;14.53;;;9.93;;
10872;SDS011;34586;53.616;10.032;2024-01-30T12:16:39;12.33;;;9.10;;
10872;SDS011;34586;53.616;10.032;2024-01-30T12:19:04;11.23;;;9.53;;
10872;SDS011;34586;53.616;10.032;2024-01-30T12:21:30;14.53;;;10.50;;
10872;SDS011;34586;53.616;10.032;2024-01-30T12:23:59;10.70;;;8.67;;
10872;SDS011;34586;53.616;10.032;2024-01-30T12:26:25;13.97;;;10.00;;
10872;SDS011;34586;53.616;10.032;2024-01-30T12:28:53;14.30;;;10.10;;
10872;SDS011;34586;53.616;10.032;2024-01-30T12:31:26;12.20;;;10.37;;
10872;SDS011;34586;53.616;10.032;2024-01-30T12:33:52;11.73;;;9.67;;
10872;SDS011;34586;53.616;10.032;2024-01-30T12:36:19;12.10;;;10.17;;
10872;SDS011;34586;53.616;10.032;2024-01-30T12:38:45;16.37;;;11.33;;
10872;SDS011;34586;53.616;10.032;2024-01-30T12:41:11;12.53;;;10.13;;
10872;SDS011;34586;53.616;10.032;2024-01-30T12:43:37;11.30;;;9.27;;
10872;SDS011;34586;53.616;10.032;2024-01-30T12:46:02;12.57;;;9.57;;
10872;SDS011;34586;53.616;10.032;2024-01-30T12:48:28;15.93;;;9.90;;
10872;SDS011;34586;53.616;10.032;2024-01-30T12:50:55;11.30;;;8.90;;
10872;SDS011;34586;53.616;10.032;2024-01-30T12:53:21;11.33;;;9.13;;
10872;SDS011;34586;53.616;10.032;2024-01-30T12:55:46;13.03;;;9.77;;
10872;SDS011;34586;53.616;10.032;2024-01-30T12:58:12;12.03;;;9.13;;
10872;SDS011;34586;53.616;10.032;2024-01-30T13:00:38;13.37;;;8.70;;
10872;SDS011;34586;53.616;10.032;2024-01-30T13:03:03;10.60;;;9.03;;
10872;SDS011;34586;53.616;10.032;2024-01-30T13:05:29;11.53;;;8.60;;
10872;SDS011;34586;53.616;10.032;2024-01-30T13:07:55;12.30;;;10.03;;
10872;SDS011;34586;53.616;10.032;2024-01-30T13:10:22;12.93;;;9.30;;
10872;SDS011;34586;53.616;10.032;2024-01-30T13:12:48;11.60;;;8.90;;
10872;SDS011;34586;53.616;10.032;2024-01-30T13:15:13;8.87;;;7.97;;
10872;SDS011;34586;53.616;10.032;2024-01-30T13:17:39;8.83;;;7.87;;
10872;SDS011;34586;53.616;10.032;2024-01-30T13:20:07;15.07;;;9.20;;
10872;SDS011;34586;53.616;10.032;2024-01-30T13:22:33;10.00;;;8.57;;
10872;SDS011;34586;53.616;10.032;2024-01-30T13:24:59;12.20;;;8.97;;
10872;SDS011;34586;53.616;10.032;2024-01-30T13:27:24;12.10;;;8.57;;
10872;SDS011;34586;53.616;10.032;2024-01-30T13:29:50;10.80;;;8.27;;
10872;SDS011;34586;53.616;10.032;2024-01-30T13:32:16;11.47;;;8.40;;
10872;SDS011;34586;53.616;10.032;2024-01-30T13:34:41;11.63;;;9.10;;
10872;SDS011;34586;53.616;10.032;2024-01-30T13:37:08;12.27;;;8.83;;
10872;SDS011;34586;53.616;10.032;2024-01-30T13:39:33;11.40;;;8.90;;
10872;SDS011;34586;53.616;10.032;2024-01-30T13:41:59;14.80;;;9.60;;
10872;SDS011;34586;53.616;10.032;2024-01-30T13:44:25;12.30;;;8.50;;
10872;SDS011;34586;53.616;10.032;2024-01-30T13:46:50;12.73;;;8.73;;
10872;SDS011;34586;53.616;10.032;2024-01-30T13:49:16;9.13;;;7.40;;
10872;SDS011;34586;53.616;10.032;2024-01-30T13:51:41;11.17;;;8.87;;
10872;SDS011;34586;53.616;10.032;2024-01-30T13:54:07;12.33;;;9.07;;
10872;SDS011;34586;53.616;10.032;2024-01-30T13:56:33;11.93;;;8.27;;
10872;SDS011;34586;53.616;10.032;2024-01-30T13:58:59;13.03;;;9.13;;
10872;SDS011;34586;53.616;10.032;2024-01-30T14:01:26;10.30;;;8.43;;
10872;SDS011;34586;53.616;10.032;2024-01-30T14:03:51;8.83;;;7.97;;
10872;SDS011;34586;53.616;10.032;2024-01-30T14:06:17;10.90;;;8.20;;
10872;SDS011;34586;53.616;10.032;2024-01-30T14:08:43;11.67;;;8.73;;
10872;SDS011;34586;53.616;10.032;2024-01-30T14:11:09;12.37;;;8.77;;
10872;SDS011;34586;53.616;10.032;2024-01-30T14:13:34;10.07;;;7.87;;
10872;SDS011;34586;53.616;10.032;2024-01-30T14:16:00;10.10;;;7.80;;
10872;SDS011;34586;53.616;10.032;2024-01-30T14:18:26;11.13;;;8.07;;
10872;SDS011;34586;53.616;10.032;2024-01-30T14:20:52;11.17;;;9.37;;
10872;SDS011;34586;53.616;10.032;2024-01-30T14:23:18;16.00;;;9.93;;